Nearby METAR Reports

 

LJLJ - Ljubljana/Brnik, Slovenia
Distance from station: W 41km
Updated: 25/05/2020 03:00
Clear
Clear
 Wind from varies
Wind: varies 2 km/h
Temperature: 9°C
Dew Point: 7°C
Humidity: 87%
Barometer: 1028 hPa
Summary: Clear
Visibility: greater than 10 km
2020/05/25 01:00 LJLJ 250100Z VRB01KT CAVOK 09/07 Q1028 NOSIG
LJMB - Maribor, Slovenia
Distance from station: NE 63km
Updated: 25/05/2020 03:00
Partly cloudy
Partly cloudy
 Wind from SE
Wind: SE 4 km/h
Temperature: 11°C
Dew Point: 7°C
Humidity: 77%
Barometer: 1027 hPa
Clouds: Partly cloudy
Visibility: 10 km
2020/05/25 01:00 LJMB 250100Z AUTO 13002KT 9999 NSC 11/07 Q1027
 
LJPZ - Portoroz, Slovenia
Distance from station: SW 130km
Updated: 25/05/2020 03:00
Clear
Clear
 Wind from ESE
Wind: ESE 15 km/h
Temperature: 12°C
Dew Point: 9°C
Humidity: 82%
Barometer: 1027 hPa
Clouds: Clear
Visibility: 10 km
2020/05/25 01:00 LJPZ 250100Z AUTO 12008KT 9999 NCD 12/09 Q1027
LJCE - Cerklje, Slovenia
Distance from station: ESE 49km
Updated: 25/05/2020 03:00
Partly cloudy
Partly cloudy
 Wind from WSW
Wind: WSW 4 km/h
Temperature: 10°C
Dew Point: 8°C
Humidity: 88%
Barometer: 1028 hPa
Clouds: Partly cloudy
Visibility: 10 km
2020/05/25 01:00 LJCE 250100Z AUTO 24002KT 9999 NSC 10/08 Q1028
 
LDZA - Zagreb/Pleso, Croatia
Distance from station: ESE 96km
Updated: 25/05/2020 03:00
Light rain, Showers, Partly cloudy
Light rain, Showers, Partly cloudy
 Wind from W
Wind: W 6 km/h
Temperature: 12°C
Dew Point: 10°C
Humidity: 88%
Barometer: 1027 hPa
Summary: Light rain, Showers
Clouds: Partly cloudy
Visibility: 10 km
Cloud details: Partly cloudy 1981 m
2020/05/25 01:00 LDZA 250100Z 26003KT 9999 -SHRA SCT065TCU 12/10 Q1027 NOSIG
LDRI - Rijeka/Omisalj, Croatia
Distance from station: SSW 109km
Updated: 25/05/2020 03:00
Clear
Clear
 Wind from varies
Wind: varies 4 km/h
Temperature: 12°C
Dew Point: 6°C
Humidity: 67%
Barometer: 1027 hPa
Summary: Clear
Visibility: greater than 10 km
2020/05/25 01:00 LDRI 250100Z VRB02KT CAVOK 12/06 Q1027
 
LDPL - Pula, Croatia
Distance from station: SSW 164km
Updated: 25/05/2020 03:00
Clear
Clear
 Wind from NNE
Wind: NNE 13 km/h
Temperature: 14°C
Dew Point: 5°C
Humidity: 55%
Barometer: 1027 hPa
Summary: Clear
Visibility: greater than 10 km
2020/05/25 01:00 LDPL 250100Z 03007KT CAVOK 14/05 Q1027
LOWK - Klagenfurt(Civ/M, Austria
Distance from station: NW 76km
Updated: 25/05/2020 02:50
Mostly cloudy
Mostly cloudy
 Wind from NNE
Wind: NNE 6 km/h
Temperature: 11°C
Dew Point: 6°C
Humidity: 72%
Barometer: 1028 hPa
Clouds: Mostly cloudy
Visibility: 10 km
Cloud details: Few Clouds 2438 m
Mostly cloudy 2743 m
2020/05/25 00:50 LOWK 250050Z AUTO 03003KT 9999 FEW080 BKN090 11/06 Q1028
 
LOWG - Graz (mil/Civ), Austria
Distance from station: NNE 100km
Updated: 25/05/2020 02:50
Few Clouds
Few Clouds
 Wind from varies
Wind: varies 6 km/h
Temperature: 12°C
Dew Point: 6°C
Humidity: 67%
Barometer: 1027 hPa
Clouds: Few Clouds
Visibility: 10 km
Cloud details: Few Clouds 1829 m
2020/05/25 00:50 LOWG 250050Z AUTO VRB03KT 9999 FEW060 12/06 Q1027
LOAN - Wr.neustadt East, Austria
Distance from station: NNE 212km
Updated: 24/05/2020 20:00
NOT Current
Mostly cloudy
Mostly cloudy
 Wind from W
Wind: W 19 km/h
Clouds: Mostly cloudy
Cloud details: Few Clouds 1219 m
Partly cloudy 1524 m
Mostly cloudy 3048 m
2020/05/24 18:00 LOAN 241800Z 28010KT 25KM FEW040CU SCT050SC BKN100AC
 
LIPQ - Ronchi Legionari, Italy
Distance from station: SW 35km
Updated: 25/05/2020 02:50
Clear
Clear
 Wind from ESE
Wind: ESE 11 km/h
Temperature: 12°C
Dew Point: 9°C
Humidity: 82%
Barometer: 1027 hPa
Clouds: Clear
Visibility: 10 km
2020/05/25 00:50 LIPQ 250050Z AUTO 11006KT 9999 // NCD 12/09 Q1027
LIVT - Trieste, Italy
Distance from station: WSW 109km
Updated: 25/05/2020 01:55
NOT Current
Clear
Clear
 Wind from varies
Wind: varies 0 km/h
Temperature: 16°C
Dew Point: 12°C
Humidity: 77%
Barometer: 1026 hPa
Summary: Clear
Visibility: greater than 10 km
2020/05/24 23:55 LIVT 242355Z /////KT CAVOK 16/12 Q1026 RMK SKC QUK / QUL / VIS MAR 20 KM VIS MIN 9999
 
LIVO - Tarvisio, Italy
Distance from station: NNW 49km
Updated: 24/05/2020 19:55
NOT Current
Few Clouds
Few Clouds
 Wind from calm
Wind: Calm
Temperature: 13°C
Dew Point: 6°C
Humidity: 63%
Barometer: 1026 hPa
Clouds: Few Clouds
Visibility: 10 km
Cloud details: Few Clouds 1219 m
2020/05/24 17:55 LIVO 241755Z 00000KT 9999 FEW040 13/06 Q1026 RMK FEW VIS MIN 9999
LIPZ - Venezia/Tessera, Italy
Distance from station: WSW 217km
Updated: 25/05/2020 02:50
Clear
Clear
 Wind from WSW
Wind: WSW 7 km/h
Temperature: 17°C
Dew Point: 12°C
Humidity: 73%
Barometer: 1026 hPa
Summary: Clear
Visibility: greater than 10 km
2020/05/25 00:50 LIPZ 250050Z 25004KT CAVOK 17/12 Q1026 NOSIG
 
LHSM - Balaton, Hungary
Distance from station: ENE 177km
Updated: 25/05/2020 02:45
Partly cloudy
Partly cloudy
 Wind from NW
Wind: NW 9 km/h
Temperature: 9°C
Wind Chill: 7°C
Dew Point: 7°C
Humidity: 87%
Barometer: 1027 hPa
Clouds: Partly cloudy
Visibility: 9 km
2020/05/25 00:45 LHSM 250045Z AUTO 31005KT 9000 NSC 09/07 Q1027